createdAt,value
2019-04-11T00:01:05.918Z,82.60
2019-04-11T00:03:39.460Z,82.20
2019-04-11T00:06:12.043Z,82.00
2019-04-11T00:08:45.888Z,82.00
2019-04-11T00:11:19.770Z,84.50
2019-04-11T00:13:53.638Z,82.80
2019-04-11T00:16:26.346Z,83.20
2019-04-11T00:18:59.261Z,82.60
2019-04-11T00:21:31.452Z,82.10
2019-04-11T00:24:04.870Z,82.00
2019-04-11T00:26:38.117Z,83.40
2019-04-11T00:29:12.140Z,82.30
2019-04-11T00:31:45.368Z,82.30
2019-04-11T00:34:18.533Z,81.90
2019-04-11T00:36:50.879Z,81.80
2019-04-11T00:39:23.634Z,81.90
2019-04-11T00:41:57.034Z,81.90
2019-04-11T00:44:30.603Z,81.70
2019-04-11T00:47:04.712Z,82.70
2019-04-11T00:49:37.235Z,82.00
2019-04-11T00:52:09.565Z,81.80
2019-04-11T00:54:42.758Z,81.80
2019-04-11T00:57:14.896Z,81.90
2019-04-11T00:59:46.991Z,81.80
2019-04-11T01:02:21.002Z,82.10
2019-04-11T01:04:53.409Z,81.60
2019-04-11T01:07:26.939Z,81.80
2019-04-11T01:09:59.226Z,81.70
2019-04-11T01:12:32.308Z,81.60
2019-04-11T01:15:04.979Z,81.80
2019-04-11T01:17:39.145Z,81.50
2019-04-11T01:20:11.841Z,83.60
2019-04-11T01:22:44.740Z,81.60
2019-04-11T01:25:17.221Z,81.50
2019-04-11T01:27:50.014Z,81.50
2019-04-11T01:30:25.356Z,81.60
2019-04-11T01:32:58.936Z,81.50
2019-04-11T01:35:31.250Z,81.80
2019-04-11T01:38:06.239Z,83.00
2019-04-11T01:40:40.124Z,81.50
2019-04-11T01:43:12.140Z,82.80
2019-04-11T01:45:52.346Z,81.20
2019-04-11T01:48:36.141Z,81.30
2019-04-11T01:51:09.660Z,81.00
2019-04-11T01:53:42.216Z,81.00
2019-04-11T01:56:16.848Z,80.70
2019-04-11T01:58:53.032Z,80.60
2019-04-11T02:01:25.825Z,80.30
2019-04-11T02:04:09.790Z,80.20
2019-04-11T02:06:42.477Z,80.20
2019-04-11T02:09:16.451Z,80.20
2019-04-11T02:11:49.863Z,80.20
2019-04-11T02:14:22.654Z,80.40
2019-04-11T02:16:55.290Z,81.60
2019-04-11T02:19:28.373Z,80.30
2019-04-11T02:22:22.239Z,81.80
2019-04-11T02:25:07.812Z,82.00
2019-04-11T02:27:42.271Z,80.00
2019-04-11T02:30:16.742Z,82.30
2019-04-11T02:32:49.862Z,80.00
2019-04-11T02:35:24.177Z,81.00
2019-04-11T02:37:57.123Z,79.70
2019-04-11T02:40:32.258Z,79.30
2019-04-11T02:43:04.986Z,79.50
2019-04-11T02:45:50.866Z,79.40
2019-04-11T02:48:13.982Z,79.70
2019-04-11T02:50:47.827Z,80.10
2019-04-11T02:53:21.944Z,79.80
2019-04-11T02:55:56.591Z,79.30
2019-04-11T02:58:30.244Z,78.90
2019-04-11T03:01:05.273Z,78.60
2019-04-11T03:03:39.917Z,78.10
2019-04-11T03:06:13.828Z,79.20
2019-04-11T03:08:49.011Z,79.30
2019-04-11T03:11:24.163Z,78.60
2019-04-11T03:13:58.340Z,78.40
2019-04-11T03:16:42.670Z,77.90
2019-04-11T03:19:21.180Z,76.50
2019-04-11T03:21:41.728Z,77.00
2019-04-11T03:24:15.492Z,75.80
2019-04-11T03:26:49.749Z,74.00
2019-04-11T03:29:24.095Z,75.30
2019-04-11T03:32:42.150Z,75.80
2019-04-11T03:35:31.638Z,72.20
2019-04-11T03:37:39.172Z,75.80
2019-04-11T03:40:00.659Z,74.90
2019-04-11T03:42:32.035Z,74.80
2019-04-11T03:45:11.289Z,74.60
2019-04-11T03:47:37.521Z,74.30
2019-04-11T03:50:06.050Z,73.80
2019-04-11T03:52:32.813Z,72.80
2019-04-11T03:55:08.480Z,72.30
2019-04-11T03:57:41.706Z,72.40
2019-04-11T04:00:16.125Z,74.40
2019-04-11T04:02:49.646Z,72.60
2019-04-11T04:05:25.714Z,71.30
2019-04-11T04:08:00.137Z,72.20
2019-04-11T04:10:34.202Z,71.20
2019-04-11T04:13:16.872Z,73.90
2019-04-11T04:15:59.968Z,74.00
2019-04-11T04:18:29.957Z,71.40
2019-04-11T04:21:22.636Z,73.50
2019-04-11T04:23:59.320Z,73.80
2019-04-11T04:26:35.574Z,73.20
2019-04-11T04:29:09.441Z,74.30
2019-04-11T04:31:42.514Z,73.40
2019-04-11T04:34:15.515Z,72.20
2019-04-11T04:36:49.678Z,73.20
2019-04-11T04:39:24.763Z,73.90
2019-04-11T04:42:05.865Z,73.70
2019-04-11T04:44:33.396Z,72.40
2019-04-11T04:47:18.099Z,71.90
2019-04-11T04:49:41.251Z,71.80
2019-04-11T04:52:14.423Z,72.70
2019-04-11T04:54:48.353Z,71.10
2019-04-11T04:57:21.824Z,67.90
2019-04-11T04:59:55.543Z,67.90
2019-04-11T05:02:30.558Z,70.50
2019-04-11T05:05:04.256Z,65.90
2019-04-11T05:07:42.047Z,68.50
2019-04-11T05:10:13.442Z,67.40
2019-04-11T05:12:46.169Z,69.20
2019-04-11T05:15:20.559Z,70.20
2019-04-11T05:17:53.332Z,69.60
2019-04-11T05:20:28.086Z,67.80
2019-04-11T05:23:02.099Z,70.10
2019-04-11T05:25:34.808Z,69.30
2019-04-11T05:28:12.017Z,68.80
2019-04-11T05:30:44.978Z,69.20
2019-04-11T05:33:16.055Z,69.00
2019-04-11T05:35:48.417Z,69.00
2019-04-11T05:38:22.979Z,71.20
2019-04-11T05:40:56.660Z,69.70
2019-04-11T05:43:32.009Z,65.40
2019-04-11T05:46:07.206Z,65.30
2019-04-11T05:48:47.277Z,64.90
2019-04-11T05:51:22.023Z,66.40
2019-04-11T05:53:54.495Z,62.40
2019-04-11T05:56:31.425Z,63.10
2019-04-11T05:59:05.355Z,67.40
2019-04-11T06:01:42.543Z,63.10
2019-04-11T06:04:22.392Z,68.40
2019-04-11T06:06:58.504Z,68.80
2019-04-11T06:09:38.177Z,66.20
2019-04-11T06:12:11.437Z,65.40
2019-04-11T06:14:49.226Z,68.90
2019-04-11T06:17:22.211Z,66.70
2019-04-11T06:20:08.233Z,68.60
2019-04-11T06:22:42.472Z,69.10
2019-04-11T06:25:16.693Z,65.10
2019-04-11T06:27:54.418Z,68.00
2019-04-11T06:30:28.429Z,66.50
2019-04-11T06:33:14.625Z,66.20
2019-04-11T06:36:04.583Z,68.40
2019-04-11T06:38:38.957Z,68.90
2019-04-11T06:41:18.753Z,64.80
2019-04-11T06:44:08.625Z,65.20
2019-04-11T06:46:57.451Z,64.20
2019-04-11T06:49:32.880Z,64.00
2019-04-11T06:52:15.362Z,58.50
2019-04-11T06:55:02.277Z,63.40
2019-04-11T06:57:36.262Z,63.60
2019-04-11T07:00:18.330Z,56.00
2019-04-11T07:02:55.128Z,55.70
2019-04-11T07:05:29.050Z,56.90
2019-04-11T07:08:02.668Z,59.10
2019-04-11T07:10:40.937Z,53.90
2019-04-11T07:13:14.788Z,57.00
2019-04-11T07:15:50.532Z,54.60
2019-04-11T07:18:42.455Z,53.90
2019-04-11T07:21:15.018Z,59.50
2019-04-11T07:24:05.583Z,56.10
2019-04-11T07:26:39.416Z,57.40
2019-04-11T07:29:29.542Z,58.00
2019-04-11T07:32:09.875Z,60.90
2019-04-11T07:34:43.986Z,56.60
2019-04-11T07:37:30.231Z,54.50
2019-04-11T07:40:07.510Z,56.90
2019-04-11T07:42:43.356Z,59.30
2019-04-11T07:45:17.336Z,52.40
2019-04-11T07:47:52.578Z,52.80
2019-04-11T07:50:26.216Z,53.30
2019-04-11T07:53:05.917Z,54.90
2019-04-11T07:55:39.821Z,57.60
2019-04-11T07:58:23.800Z,53.30
2019-04-11T08:01:14.647Z,58.50
2019-04-11T08:04:06.030Z,53.60
2019-04-11T08:06:58.535Z,54.40
2019-04-11T08:09:39.630Z,56.80
2019-04-11T08:12:23.549Z,56.10
2019-04-11T08:15:01.579Z,57.40
2019-04-11T08:17:39.031Z,56.60
2019-04-11T08:20:10.644Z,57.60
2019-04-11T08:22:45.439Z,61.00
2019-04-11T08:25:31.570Z,59.30
2019-04-11T08:28:07.836Z,59.10
2019-04-11T08:30:41.517Z,59.30
2019-04-11T08:33:16.185Z,62.20
2019-04-11T08:35:57.126Z,59.70
2019-04-11T08:38:32.198Z,62.50
2019-04-11T08:41:23.217Z,63.00
2019-04-11T08:43:55.894Z,63.50
2019-04-11T08:46:42.724Z,62.20
2019-04-11T08:49:33.271Z,61.70
2019-04-11T08:52:11.741Z,62.90
2019-04-11T08:55:02.204Z,62.50
2019-04-11T08:57:40.970Z,64.70
2019-04-11T09:00:16.133Z,64.40
2019-04-11T09:02:51.301Z,64.70
2019-04-11T09:05:29.147Z,65.10
2019-04-11T09:08:20.379Z,65.50
2019-04-11T09:10:58.162Z,65.70
2019-04-11T09:13:44.225Z,66.10
2019-04-11T09:16:21.703Z,66.60
2019-04-11T09:18:56.731Z,68.10
2019-04-11T09:21:40.370Z,67.40
2019-04-11T09:24:15.215Z,67.70
2019-04-11T09:27:06.511Z,67.60
2019-04-11T09:29:52.797Z,67.90
2019-04-11T09:32:29.450Z,68.10
2019-04-11T09:35:03.118Z,68.40
2019-04-11T09:37:36.027Z,68.90
2019-04-11T09:40:11.860Z,68.80
2019-04-11T09:42:51.616Z,69.00
2019-04-11T09:45:29.765Z,69.70
2019-04-11T09:48:14.822Z,69.70
2019-04-11T09:50:47.490Z,70.20
2019-04-11T09:53:21.207Z,70.20
2019-04-11T09:55:58.236Z,70.20
2019-04-11T09:58:31.911Z,71.10
2019-04-11T10:01:06.223Z,71.60
2019-04-11T10:03:40.805Z,71.30
2019-04-11T10:06:19.443Z,71.50
2019-04-11T10:08:57.519Z,71.50
2019-04-11T10:11:38.132Z,71.90
2019-04-11T10:14:13.362Z,71.60
2019-04-11T10:17:04.436Z,71.80
2019-04-11T10:19:38.404Z,72.30
2019-04-11T10:22:18.574Z,72.20
2019-04-11T10:25:08.147Z,72.70
2019-04-11T10:27:59.040Z,71.50
2019-04-11T10:30:35.481Z,72.50
2019-04-11T10:33:12.890Z,72.10
2019-04-11T10:35:54.487Z,73.00
2019-04-11T10:38:28.745Z,73.00
2019-04-11T10:41:04.108Z,72.10
2019-04-11T10:43:36.515Z,72.00
2019-04-11T10:46:22.983Z,72.30
2019-04-11T10:48:59.755Z,75.40
2019-04-11T10:51:50.065Z,73.20
2019-04-11T10:54:26.010Z,73.60
2019-04-11T10:57:11.925Z,72.60
2019-04-11T10:59:46.969Z,73.00
2019-04-11T11:02:40.140Z,72.50
2019-04-11T11:05:17.366Z,72.70
2019-04-11T11:07:51.021Z,76.20
2019-04-11T11:10:25.809Z,76.10
2019-04-11T11:13:14.554Z,74.10
2019-04-11T11:19:31.192Z,76.80
2019-04-11T11:21:39.341Z,77.80
2019-04-11T11:24:13.761Z,78.20
2019-04-11T11:26:47.623Z,73.90
2019-04-11T11:29:31.837Z,74.70
2019-04-11T11:32:07.065Z,76.10
2019-04-11T11:34:41.242Z,74.10
2019-04-11T11:37:31.152Z,76.70
2019-04-11T11:40:21.821Z,77.20
2019-04-11T11:43:14.739Z,75.10
2019-04-11T11:45:58.842Z,74.00
2019-04-11T11:48:33.422Z,74.80
2019-04-11T11:51:28.228Z,74.40
2019-04-11T11:54:17.582Z,75.10
2019-04-11T11:56:50.722Z,75.70
2019-04-11T11:59:23.121Z,74.90
2019-04-11T12:01:57.650Z,75.60
2019-04-11T12:04:36.020Z,75.00
2019-04-11T12:07:09.720Z,76.40
2019-04-11T12:09:52.961Z,75.20
2019-04-11T12:12:44.200Z,75.10
2019-04-11T12:15:22.815Z,75.30
2019-04-11T12:18:04.565Z,75.20
2019-04-11T12:20:39.464Z,75.40
2019-04-11T12:23:19.732Z,75.40
2019-04-11T12:25:53.599Z,75.40
2019-04-11T12:28:30.239Z,77.20
2019-04-11T12:31:05.427Z,75.70
2019-04-11T12:33:56.009Z,75.40
2019-04-11T12:36:30.657Z,75.60
2019-04-11T12:39:10.451Z,76.00
2019-04-11T12:41:54.507Z,76.80
2019-04-11T12:44:30.981Z,76.30
2019-04-11T12:47:17.219Z,76.50
2019-04-11T12:49:52.935Z,76.10
2019-04-11T12:52:33.363Z,76.30
2019-04-11T12:55:08.150Z,76.50
2019-04-11T12:57:59.002Z,77.20
2019-04-11T13:00:50.952Z,76.70
2019-04-11T13:03:30.589Z,78.40
2019-04-11T13:06:21.151Z,76.90
2019-04-11T13:09:12.340Z,77.20
2019-04-11T13:11:46.145Z,77.40
2019-04-11T13:14:36.489Z,77.30
2019-04-11T13:17:16.880Z,77.40
2019-04-11T13:20:07.087Z,78.00
2019-04-11T13:26:08.740Z,78.00
2019-04-11T13:28:43.426Z,78.60
2019-04-11T13:31:42.299Z,79.10
2019-04-11T13:34:22.868Z,79.40
2019-04-11T13:37:00.059Z,79.30
2019-04-11T13:39:32.587Z,78.80
2019-04-11T13:42:22.491Z,78.90
2019-04-11T13:44:57.442Z,78.70
2019-04-11T13:47:37.727Z,78.80
2019-04-11T13:50:16.872Z,78.80
2019-04-11T13:52:51.963Z,78.80
2019-04-11T13:55:24.732Z,80.40
2019-04-11T13:58:08.975Z,78.70
2019-04-11T14:00:45.999Z,78.90
2019-04-11T14:03:31.235Z,79.80
2019-04-11T14:06:05.434Z,81.30
2019-04-11T14:08:52.193Z,79.50
2019-04-11T14:11:29.261Z,79.40
2019-04-11T14:14:05.076Z,79.40
2019-04-11T14:16:36.996Z,80.20
2019-04-11T14:19:27.578Z,79.90
2019-04-11T14:22:00.510Z,79.80
2019-04-11T14:24:42.337Z,80.90
2019-04-11T14:27:18.157Z,81.40
2019-04-11T14:30:07.835Z,80.30
2019-04-11T14:32:43.528Z,79.80
2019-04-11T14:35:23.483Z,81.10
2019-04-11T14:38:00.266Z,79.70
2019-04-11T14:40:33.857Z,80.60
2019-04-11T14:43:24.246Z,80.10
2019-04-11T14:46:00.985Z,80.20
2019-04-11T14:48:40.911Z,80.60
2019-04-11T14:51:30.216Z,80.80
2019-04-11T14:54:04.846Z,80.00
2019-04-11T14:56:38.720Z,79.80
2019-04-11T14:59:28.932Z,79.50
2019-04-11T15:02:20.979Z,79.70
2019-04-11T15:05:07.387Z,79.30
2019-04-11T15:07:55.525Z,79.70
2019-04-11T15:10:22.008Z,80.00
2019-04-11T15:12:56.144Z,80.00
2019-04-11T15:15:36.754Z,81.30
2019-04-11T15:18:12.634Z,80.20
2019-04-11T15:20:54.762Z,81.00
2019-04-11T15:23:21.866Z,81.60
2019-04-11T15:26:07.834Z,80.90
2019-04-11T15:28:52.427Z,80.90
2019-04-11T15:31:38.533Z,80.50
2019-04-11T15:34:18.431Z,79.80
2019-04-11T15:37:08.464Z,82.30
2019-04-11T15:40:00.315Z,80.10
2019-04-11T15:42:37.783Z,79.70
2019-04-11T15:45:17.933Z,79.50
2019-04-11T15:47:58.043Z,79.90
2019-04-11T15:50:51.711Z,80.60
2019-04-11T15:53:39.673Z,81.80
2019-04-11T15:56:32.371Z,80.20
2019-04-11T15:59:13.126Z,81.80
2019-04-11T16:01:50.797Z,80.40
2019-04-11T16:04:33.081Z,81.00
2019-04-11T16:07:15.303Z,80.90
2019-04-11T16:09:57.841Z,81.30
2019-04-11T16:12:34.950Z,81.10
2019-04-11T16:15:09.457Z,81.10
2019-04-11T16:17:59.688Z,80.90
2019-04-11T16:20:31.910Z,80.40
2019-04-11T16:23:09.099Z,80.50
2019-04-11T16:25:51.437Z,80.90
2019-04-11T16:28:47.917Z,80.60
2019-04-11T16:31:50.870Z,80.90
2019-04-11T16:34:34.061Z,80.40
2019-04-11T16:37:19.689Z,80.70
2019-04-11T16:40:12.403Z,80.70
2019-04-11T16:42:47.769Z,80.60
2019-04-11T16:45:24.990Z,80.50
2019-04-11T16:48:13.782Z,80.30
2019-04-11T16:50:46.471Z,81.80
2019-04-11T16:53:21.916Z,80.20
2019-04-11T16:55:54.400Z,80.00
2019-04-11T16:58:26.957Z,80.20
2019-04-11T17:01:00.472Z,80.30
2019-04-11T17:03:35.656Z,80.20
2019-04-11T17:06:18.573Z,80.70
2019-04-11T17:08:58.643Z,80.60
2019-04-11T17:11:32.104Z,79.90
2019-04-11T17:14:05.435Z,80.20
2019-04-11T17:16:38.286Z,81.90
2019-04-11T17:19:14.712Z,81.10
2019-04-11T17:21:48.063Z,80.20
2019-04-11T17:24:20.568Z,80.90
2019-04-11T17:26:53.421Z,81.60
2019-04-11T17:29:26.717Z,80.40
2019-04-11T17:31:59.899Z,80.30
2019-04-11T17:34:32.350Z,81.20
2019-04-11T17:37:05.184Z,81.50
2019-04-11T17:39:40.311Z,82.90
2019-04-11T17:42:16.274Z,80.60
2019-04-11T17:44:48.160Z,80.90
2019-04-11T17:47:21.324Z,80.30
2019-04-11T17:49:54.991Z,80.60
2019-04-11T17:52:32.218Z,81.90
2019-04-11T17:55:04.906Z,83.20
2019-04-11T17:57:38.374Z,82.70
2019-04-11T18:00:14.071Z,83.20
2019-04-11T18:02:46.747Z,82.00
2019-04-11T18:05:20.820Z,84.80
2019-04-11T18:07:55.421Z,82.60
2019-04-11T18:10:29.438Z,85.60
2019-04-11T18:13:02.111Z,84.20
2019-04-11T18:15:35.157Z,82.50
2019-04-11T18:18:08.535Z,83.60
2019-04-11T18:20:44.086Z,84.70
2019-04-11T18:23:19.644Z,82.00
2019-04-11T18:25:51.142Z,84.30
2019-04-11T18:28:24.535Z,84.40
2019-04-11T18:30:59.742Z,83.00
2019-04-11T18:33:32.439Z,82.30
2019-04-11T18:36:08.741Z,84.20
2019-04-11T18:38:42.484Z,83.50
2019-04-11T18:41:14.821Z,81.80
2019-04-11T18:43:50.798Z,83.80
2019-04-11T18:46:23.011Z,82.30
2019-04-11T18:48:55.626Z,83.80
2019-04-11T18:51:30.348Z,86.00
2019-04-11T18:54:03.693Z,84.50
2019-04-11T18:56:38.095Z,84.10
2019-04-11T18:59:10.080Z,87.10
2019-04-11T19:01:42.526Z,83.70
2019-04-11T19:04:15.300Z,82.40
2019-04-11T19:06:47.648Z,82.40
2019-04-11T19:09:20.366Z,86.10
2019-04-11T19:11:52.847Z,84.80
2019-04-11T19:14:26.174Z,85.60
2019-04-11T19:16:58.997Z,85.10
2019-04-11T19:19:31.447Z,84.90
2019-04-11T19:22:04.522Z,86.10
2019-04-11T19:24:41.486Z,85.30
2019-04-11T19:27:14.028Z,87.60
2019-04-11T19:29:48.401Z,87.30
2019-04-11T19:32:20.039Z,84.60
2019-04-11T19:34:51.852Z,87.40
2019-04-11T19:37:24.752Z,84.30
2019-04-11T19:39:57.731Z,85.40
2019-04-11T19:42:29.570Z,86.30
2019-04-11T19:45:03.054Z,86.10
2019-04-11T19:47:35.820Z,86.60
2019-04-11T19:50:09.258Z,85.80
2019-04-11T19:52:45.868Z,85.10
2019-04-11T19:55:26.623Z,84.50
2019-04-11T19:57:59.125Z,83.90
2019-04-11T20:00:32.046Z,85.10
2019-04-11T20:03:03.479Z,86.40
2019-04-11T20:05:36.221Z,84.40
2019-04-11T20:08:09.098Z,84.20
2019-04-11T20:10:40.808Z,83.90
2019-04-11T20:13:13.611Z,83.20
2019-04-11T20:15:46.445Z,82.80
2019-04-11T20:18:22.211Z,84.20
2019-04-11T20:20:53.520Z,82.70
2019-04-11T20:23:26.388Z,83.10
2019-04-11T20:25:59.005Z,83.90
2019-04-11T20:28:31.090Z,82.60
2019-04-11T20:31:03.563Z,83.20
2019-04-11T20:33:36.067Z,84.90
2019-04-11T20:36:11.153Z,84.00
2019-04-11T20:38:44.738Z,83.90
2019-04-11T20:41:17.066Z,83.50
2019-04-11T20:43:48.359Z,84.90
2019-04-11T20:46:20.822Z,84.60
2019-04-11T20:48:54.650Z,86.10
2019-04-11T20:51:27.274Z,84.10
2019-04-11T20:53:58.934Z,82.70
2019-04-11T20:56:32.054Z,83.50
2019-04-11T20:59:04.907Z,84.00
2019-04-11T21:01:37.445Z,83.90
2019-04-11T21:04:10.931Z,86.20
2019-04-11T21:06:43.577Z,85.40
2019-04-11T21:09:16.301Z,85.10
2019-04-11T21:11:48.945Z,84.80
2019-04-11T21:14:21.973Z,83.00
2019-04-11T21:16:54.236Z,82.90
2019-04-11T21:19:27.225Z,83.30
2019-04-11T21:21:58.769Z,85.10
2019-04-11T21:24:31.995Z,83.00
2019-04-11T21:27:03.505Z,83.40
2019-04-11T21:29:36.466Z,84.20
2019-04-11T21:32:09.432Z,83.30
2019-04-11T21:34:40.875Z,84.50
2019-04-11T21:37:13.495Z,83.40
2019-04-11T21:39:46.612Z,86.20
2019-04-11T21:42:19.721Z,83.70
2019-04-11T21:44:54.458Z,82.80
2019-04-11T21:47:27.198Z,82.90
2019-04-11T21:49:58.911Z,83.40
2019-04-11T21:52:32.291Z,85.90
2019-04-11T21:55:05.274Z,83.40
2019-04-11T21:57:37.708Z,85.60
2019-04-11T22:00:24.821Z,85.00
2019-04-11T22:02:59.001Z,85.40
2019-04-11T22:05:31.924Z,86.80
2019-04-11T22:08:04.400Z,85.20
2019-04-11T22:10:56.008Z,86.80
2019-04-11T22:13:28.445Z,85.40
2019-04-11T22:16:01.028Z,85.10
2019-04-11T22:18:33.643Z,85.80
2019-04-11T22:21:05.390Z,86.70
2019-04-11T22:23:48.272Z,85.90
2019-04-11T22:26:12.103Z,87.90
2019-04-11T22:28:43.330Z,85.90
2019-04-11T22:31:16.755Z,86.00
2019-04-11T22:33:57.854Z,86.60
2019-04-11T22:36:31.818Z,86.40
2019-04-11T22:39:05.369Z,87.00
2019-04-11T22:41:38.793Z,86.30
2019-04-11T22:44:11.613Z,86.30
2019-04-11T22:46:43.647Z,86.70
2019-04-11T22:49:16.039Z,86.40
2019-04-11T22:51:49.043Z,86.60
2019-04-11T22:54:21.489Z,86.40
2019-04-11T22:56:54.546Z,86.40
2019-04-11T22:59:27.533Z,86.70
2019-04-11T23:02:01.889Z,86.40
2019-04-11T23:04:34.377Z,85.50
2019-04-11T23:07:07.802Z,86.50
2019-04-11T23:09:40.286Z,86.10
2019-04-11T23:12:15.246Z,86.00
2019-04-11T23:14:47.803Z,86.00
2019-04-11T23:17:20.458Z,86.70
2019-04-11T23:19:54.038Z,86.20
2019-04-11T23:22:27.187Z,87.30
2019-04-11T23:25:01.911Z,86.30
2019-04-11T23:27:34.879Z,86.90
2019-04-11T23:30:09.584Z,86.40
2019-04-11T23:32:42.535Z,86.20
2019-04-11T23:35:15.461Z,85.80
2019-04-11T23:38:38.978Z,86.10
2019-04-11T23:40:59.658Z,86.80
2019-04-11T23:43:32.182Z,87.00
2019-04-11T23:46:04.770Z,86.50
2019-04-11T23:48:37.315Z,86.90
2019-04-11T23:51:10.487Z,86.70
2019-04-11T23:53:44.953Z,87.20
2019-04-11T23:56:20.565Z,86.70
2019-04-11T23:58:53.105Z,86.20
